sensor_id;sensor_type;location;lat;lon;timestamp;temperature;humidity
11650;DHT22;5881;48.522;7.682;2024-01-10T00:02:04;-2.10;99.90
11650;DHT22;5881;48.522;7.682;2024-01-10T00:04:30;-2.10;99.90
11650;DHT22;5881;48.522;7.682;2024-01-10T00:06:55;-2.10;99.90
11650;DHT22;5881;48.522;7.682;2024-01-10T00:09:21;-2.00;99.90
11650;DHT22;5881;48.522;7.682;2024-01-10T00:11:47;-2.00;99.90
11650;DHT22;5881;48.522;7.682;2024-01-10T00:14:13;-2.00;99.90
11650;DHT22;5881;48.522;7.682;2024-01-10T00:16:39;-2.00;99.90
11650;DHT22;5881;48.522;7.682;2024-01-10T00:19:04;-2.00;99.90
11650;DHT22;5881;48.522;7.682;2024-01-10T00:21:30;-2.00;99.90
11650;DHT22;5881;48.522;7.682;2024-01-10T00:23:56;-2.00;92.90
11650;DHT22;5881;48.522;7.682;2024-01-10T00:26:22;-2.00;88.50
11650;DHT22;5881;48.522;7.682;2024-01-10T00:28:47;-2.00;84.50
11650;DHT22;5881;48.522;7.682;2024-01-10T00:31:13;-2.00;83.60
11650;DHT22;5881;48.522;7.682;2024-01-10T00:33:39;-2.00;81.60
11650;DHT22;5881;48.522;7.682;2024-01-10T00:36:06;-2.00;79.30
11650;DHT22;5881;48.522;7.682;2024-01-10T00:38:31;-2.00;74.50
11650;DHT22;5881;48.522;7.682;2024-01-10T00:40:57;-2.00;73.50
11650;DHT22;5881;48.522;7.682;2024-01-10T00:43:23;-2.00;71.40
11650;DHT22;5881;48.522;7.682;2024-01-10T00:45:48;-1.90;71.90
11650;DHT22;5881;48.522;7.682;2024-01-10T00:48:14;-1.90;70.00
11650;DHT22;5881;48.522;7.682;2024-01-10T00:50:39;-1.90;70.50
11650;DHT22;5881;48.522;7.682;2024-01-10T00:53:05;-1.90;71.50
11650;DHT22;5881;48.522;7.682;2024-01-10T00:55:31;-1.90;73.80
11650;DHT22;5881;48.522;7.682;2024-01-10T00:57:56;-1.90;74.70
11650;DHT22;5881;48.522;7.682;2024-01-10T01:00:22;-1.90;76.10
11650;DHT22;5881;48.522;7.682;2024-01-10T01:02:47;-1.90;74.90
11650;DHT22;5881;48.522;7.682;2024-01-10T01:05:13;-1.90;90.70
11650;DHT22;5881;48.522;7.682;2024-01-10T01:07:40;-1.90;70.70
11650;DHT22;5881;48.522;7.682;2024-01-10T01:10:06;-1.80;59.80
11650;DHT22;5881;48.522;7.682;2024-01-10T01:12:34;-1.80;46.20
11650;DHT22;5881;48.522;7.682;2024-01-10T01:14:59;-1.80;37.90
11650;DHT22;5881;48.522;7.682;2024-01-10T01:17:25;-1.80;29.50
11650;DHT22;5881;48.522;7.682;2024-01-10T01:19:50;-1.90;22.10
11650;DHT22;5881;48.522;7.682;2024-01-10T01:22:16;-1.80;20.90
11650;DHT22;5881;48.522;7.682;2024-01-10T01:24:42;-1.80;19.10
11650;DHT22;5881;48.522;7.682;2024-01-10T01:27:07;-1.80;17.20
11650;DHT22;5881;48.522;7.682;2024-01-10T01:29:33;-1.80;16.90
11650;DHT22;5881;48.522;7.682;2024-01-10T01:31:58;-1.80;14.50
11650;DHT22;5881;48.522;7.682;2024-01-10T01:34:24;-1.80;14.40
11650;DHT22;5881;48.522;7.682;2024-01-10T01:36:49;-1.60;12.00
11650;DHT22;5881;48.522;7.682;2024-01-10T01:39:17;-1.80;11.50
11650;DHT22;5881;48.522;7.682;2024-01-10T01:41:43;-1.80;12.00
11650;DHT22;5881;48.522;7.682;2024-01-10T01:44:08;-1.80;12.80
11650;DHT22;5881;48.522;7.682;2024-01-10T01:46:35;-1.90;12.30
11650;DHT22;5881;48.522;7.682;2024-01-10T01:49:00;-1.90;11.60
11650;DHT22;5881;48.522;7.682;2024-01-10T01:51:28;-1.90;12.10
11650;DHT22;5881;48.522;7.682;2024-01-10T01:53:54;-1.80;11.10
11650;DHT22;5881;48.522;7.682;2024-01-10T01:56:20;-1.80;10.50
11650;DHT22;5881;48.522;7.682;2024-01-10T01:58:48;-1.90;10.10
11650;DHT22;5881;48.522;7.682;2024-01-10T02:01:15;-1.90;10.40
11650;DHT22;5881;48.522;7.682;2024-01-10T02:03:42;-1.80;11.30
11650;DHT22;5881;48.522;7.682;2024-01-10T02:06:07;-1.90;11.30
11650;DHT22;5881;48.522;7.682;2024-01-10T02:08:34;-1.90;10.70
11650;DHT22;5881;48.522;7.682;2024-01-10T02:11:01;-1.90;10.50
11650;DHT22;5881;48.522;7.682;2024-01-10T02:13:30;-1.90;9.70
11650;DHT22;5881;48.522;7.682;2024-01-10T02:15:58;-1.90;8.20
11650;DHT22;5881;48.522;7.682;2024-01-10T02:18:24;-1.90;8.70
11650;DHT22;5881;48.522;7.682;2024-01-10T02:20:50;-1.90;8.00
11650;DHT22;5881;48.522;7.682;2024-01-10T02:23:15;-1.90;8.50
11650;DHT22;5881;48.522;7.682;2024-01-10T02:25:41;-1.90;8.50
11650;DHT22;5881;48.522;7.682;2024-01-10T02:28:07;-1.90;10.80
11650;DHT22;5881;48.522;7.682;2024-01-10T02:30:34;-1.90;9.80
11650;DHT22;5881;48.522;7.682;2024-01-10T02:33:00;-1.90;8.50
11650;DHT22;5881;48.522;7.682;2024-01-10T02:35:26;-2.00;8.40
11650;DHT22;5881;48.522;7.682;2024-01-10T02:37:52;-2.00;8.50
11650;DHT22;5881;48.522;7.682;2024-01-10T02:40:19;-1.90;8.90
11650;DHT22;5881;48.522;7.682;2024-01-10T02:42:45;-2.00;8.10
11650;DHT22;5881;48.522;7.682;2024-01-10T02:45:10;-2.00;6.60
11650;DHT22;5881;48.522;7.682;2024-01-10T02:47:36;-2.00;7.10
11650;DHT22;5881;48.522;7.682;2024-01-10T02:50:03;-2.10;6.50
11650;DHT22;5881;48.522;7.682;2024-01-10T02:52:29;-2.10;5.20
11650;DHT22;5881;48.522;7.682;2024-01-10T02:54:54;-2.10;6.30
11650;DHT22;5881;48.522;7.682;2024-01-10T02:57:20;-2.10;6.10
11650;DHT22;5881;48.522;7.682;2024-01-10T02:59:46;-2.10;6.00
11650;DHT22;5881;48.522;7.682;2024-01-10T03:02:11;-2.10;5.50
11650;DHT22;5881;48.522;7.682;2024-01-10T03:04:37;-2.20;4.50
11650;DHT22;5881;48.522;7.682;2024-01-10T03:07:03;-2.10;5.90
11650;DHT22;5881;48.522;7.682;2024-01-10T03:09:28;-2.20;5.20
11650;DHT22;5881;48.522;7.682;2024-01-10T03:11:54;-2.20;5.90
11650;DHT22;5881;48.522;7.682;2024-01-10T03:14:20;-2.20;6.40
11650;DHT22;5881;48.522;7.682;2024-01-10T03:16:45;-2.20;7.60
11650;DHT22;5881;48.522;7.682;2024-01-10T03:19:11;-2.30;7.70
11650;DHT22;5881;48.522;7.682;2024-01-10T03:21:37;-2.30;9.50
11650;DHT22;5881;48.522;7.682;2024-01-10T03:24:02;-2.30;8.70
11650;DHT22;5881;48.522;7.682;2024-01-10T03:26:28;-2.30;8.10
11650;DHT22;5881;48.522;7.682;2024-01-10T03:28:55;-2.30;7.80
11650;DHT22;5881;48.522;7.682;2024-01-10T03:31:21;-2.30;6.70
11650;DHT22;5881;48.522;7.682;2024-01-10T03:33:47;-2.30;7.60
11650;DHT22;5881;48.522;7.682;2024-01-10T03:36:14;-2.30;6.30
11650;DHT22;5881;48.522;7.682;2024-01-10T03:38:41;-2.30;5.60
11650;DHT22;5881;48.522;7.682;2024-01-10T03:41:06;-2.30;5.90
11650;DHT22;5881;48.522;7.682;2024-01-10T03:43:32;-2.30;4.70
11650;DHT22;5881;48.522;7.682;2024-01-10T03:45:58;-2.40;3.80
11650;DHT22;5881;48.522;7.682;2024-01-10T03:48:23;-2.40;3.60
11650;DHT22;5881;48.522;7.682;2024-01-10T03:50:50;-2.50;1.70
11650;DHT22;5881;48.522;7.682;2024-01-10T03:53:15;-2.50;1.80
11650;DHT22;5881;48.522;7.682;2024-01-10T03:55:41;-2.60;12.60
11650;DHT22;5881;48.522;7.682;2024-01-10T03:58:07;-2.60;1.00
11650;DHT22;5881;48.522;7.682;2024-01-10T04:00:32;-2.60;1.60
11650;DHT22;5881;48.522;7.682;2024-01-10T04:02:58;-2.50;1.20
11650;DHT22;5881;48.522;7.682;2024-01-10T04:05:23;-2.60;1.00
11650;DHT22;5881;48.522;7.682;2024-01-10T04:07:51;-2.60;1.40
11650;DHT22;5881;48.522;7.682;2024-01-10T04:10:17;-2.60;1.00
11650;DHT22;5881;48.522;7.682;2024-01-10T04:12:44;-2.70;1.00
11650;DHT22;5881;48.522;7.682;2024-01-10T04:15:11;-2.80;1.00
11650;DHT22;5881;48.522;7.682;2024-01-10T04:17:37;-2.80;1.80
11650;DHT22;5881;48.522;7.682;2024-01-10T04:20:03;-2.80;1.80
11650;DHT22;5881;48.522;7.682;2024-01-10T04:22:29;-2.90;1.00
11650;DHT22;5881;48.522;7.682;2024-01-10T04:24:57;-2.90;1.00
11650;DHT22;5881;48.522;7.682;2024-01-10T04:27:23;-3.00;1.00
11650;DHT22;5881;48.522;7.682;2024-01-10T04:29:48;-3.00;1.00
11650;DHT22;5881;48.522;7.682;2024-01-10T04:32:14;-3.10;1.00
11650;DHT22;5881;48.522;7.682;2024-01-10T04:34:39;-3.10;1.30
11650;DHT22;5881;48.522;7.682;2024-01-10T04:37:05;-3.10;2.00
11650;DHT22;5881;48.522;7.682;2024-01-10T04:39:33;-3.10;2.70
11650;DHT22;5881;48.522;7.682;2024-01-10T04:41:59;-3.00;4.00
11650;DHT22;5881;48.522;7.682;2024-01-10T04:44:24;-3.00;3.00
11650;DHT22;5881;48.522;7.682;2024-01-10T04:46:50;-3.10;2.00
11650;DHT22;5881;48.522;7.682;2024-01-10T04:49:16;-3.10;1.20
11650;DHT22;5881;48.522;7.682;2024-01-10T04:51:41;-3.20;1.00
11650;DHT22;5881;48.522;7.682;2024-01-10T04:54:08;-3.30;1.00
11650;DHT22;5881;48.522;7.682;2024-01-10T04:56:34;-3.20;1.70
11650;DHT22;5881;48.522;7.682;2024-01-10T04:59:01;-3.20;1.30
11650;DHT22;5881;48.522;7.682;2024-01-10T05:01:27;-3.10;1.30
11650;DHT22;5881;48.522;7.682;2024-01-10T05:03:53;-3.10;1.00
11650;DHT22;5881;48.522;7.682;2024-01-10T05:06:18;-3.20;1.00
11650;DHT22;5881;48.522;7.682;2024-01-10T05:08:44;-3.40;1.00
11650;DHT22;5881;48.522;7.682;2024-01-10T05:11:09;-3.40;1.00
11650;DHT22;5881;48.522;7.682;2024-01-10T05:13:35;-3.40;1.00
11650;DHT22;5881;48.522;7.682;2024-01-10T05:16:01;-3.40;1.10
11650;DHT22;5881;48.522;7.682;2024-01-10T05:18:27;-3.50;1.00
11650;DHT22;5881;48.522;7.682;2024-01-10T05:20:52;-3.60;1.00
11650;DHT22;5881;48.522;7.682;2024-01-10T05:23:18;-3.70;1.00
11650;DHT22;5881;48.522;7.682;2024-01-10T05:25:43;-3.80;1.00
11650;DHT22;5881;48.522;7.682;2024-01-10T05:28:09;-3.70;1.30
11650;DHT22;5881;48.522;7.682;2024-01-10T05:30:34;-3.80;1.40
11650;DHT22;5881;48.522;7.682;2024-01-10T05:33:00;-3.80;2.20
11650;DHT22;5881;48.522;7.682;2024-01-10T05:35:26;-3.80;2.30
11650;DHT22;5881;48.522;7.682;2024-01-10T05:37:52;-3.90;2.20
11650;DHT22;5881;48.522;7.682;2024-01-10T05:40:18;-3.90;2.50
11650;DHT22;5881;48.522;7.682;2024-01-10T05:42:44;-3.90;3.70
11650;DHT22;5881;48.522;7.682;2024-01-10T05:45:10;-4.00;3.30
11650;DHT22;5881;48.522;7.682;2024-01-10T05:47:35;-4.00;5.30
11650;DHT22;5881;48.522;7.682;2024-01-10T05:50:02;-4.00;4.90
11650;DHT22;5881;48.522;7.682;2024-01-10T05:52:27;-3.70;6.50
11650;DHT22;5881;48.522;7.682;2024-01-10T05:54:53;-3.90;5.50
11650;DHT22;5881;48.522;7.682;2024-01-10T05:57:19;-4.00;4.20
11650;DHT22;5881;48.522;7.682;2024-01-10T05:59:46;-4.10;3.80
11650;DHT22;5881;48.522;7.682;2024-01-10T06:02:12;-4.10;3.80
11650;DHT22;5881;48.522;7.682;2024-01-10T06:04:41;-4.20;4.70
11650;DHT22;5881;48.522;7.682;2024-01-10T06:07:07;-4.10;6.70
11650;DHT22;5881;48.522;7.682;2024-01-10T06:09:32;-4.10;6.20
11650;DHT22;5881;48.522;7.682;2024-01-10T06:11:58;-4.00;7.40
11650;DHT22;5881;48.522;7.682;2024-01-10T06:14:23;-4.20;6.00
11650;DHT22;5881;48.522;7.682;2024-01-10T06:16:49;-4.30;6.10
11650;DHT22;5881;48.522;7.682;2024-01-10T06:19:14;-4.30;6.30
11650;DHT22;5881;48.522;7.682;2024-01-10T06:21:40;-4.30;7.00
11650;DHT22;5881;48.522;7.682;2024-01-10T06:24:06;-4.30;7.60
11650;DHT22;5881;48.522;7.682;2024-01-10T06:26:33;-4.30;8.70
11650;DHT22;5881;48.522;7.682;2024-01-10T06:28:59;-4.30;8.20
11650;DHT22;5881;48.522;7.682;2024-01-10T06:31:24;-4.30;9.40
11650;DHT22;5881;48.522;7.682;2024-01-10T06:33:50;-4.20;7.80
11650;DHT22;5881;48.522;7.682;2024-01-10T06:36:15;-4.30;9.90
11650;DHT22;5881;48.522;7.682;2024-01-10T06:38:41;-4.30;7.80
11650;DHT22;5881;48.522;7.682;2024-01-10T06:41:10;-4.40;7.90
11650;DHT22;5881;48.522;7.682;2024-01-10T06:43:37;-4.50;8.70
11650;DHT22;5881;48.522;7.682;2024-01-10T06:46:02;-4.60;8.00
11650;DHT22;5881;48.522;7.682;2024-01-10T06:48:29;-4.70;8.70
11650;DHT22;5881;48.522;7.682;2024-01-10T06:50:55;-4.70;9.70
11650;DHT22;5881;48.522;7.682;2024-01-10T06:53:21;-4.70;12.00
11650;DHT22;5881;48.522;7.682;2024-01-10T06:55:47;-4.70;11.70
11650;DHT22;5881;48.522;7.682;2024-01-10T06:58:12;-4.80;12.00
11650;DHT22;5881;48.522;7.682;2024-01-10T07:00:38;-4.80;23.90
11650;DHT22;5881;48.522;7.682;2024-01-10T07:03:04;-4.80;13.90
11650;DHT22;5881;48.522;7.682;2024-01-10T07:05:29;-4.80;13.10
11650;DHT22;5881;48.522;7.682;2024-01-10T07:07:57;-4.80;13.40
11650;DHT22;5881;48.522;7.682;2024-01-10T07:10:23;-4.80;15.30
11650;DHT22;5881;48.522;7.682;2024-01-10T07:12:54;-4.80;15.30
11650;DHT22;5881;48.522;7.682;2024-01-10T07:15:20;-4.80;16.20
11650;DHT22;5881;48.522;7.682;2024-01-10T07:17:45;-4.80;16.10
11650;DHT22;5881;48.522;7.682;2024-01-10T07:20:11;-4.90;16.70
11650;DHT22;5881;48.522;7.682;2024-01-10T07:22:38;-4.80;17.60
11650;DHT22;5881;48.522;7.682;2024-01-10T07:25:12;-4.70;22.10
11650;DHT22;5881;48.522;7.682;2024-01-10T07:27:40;-4.50;20.40
11650;DHT22;5881;48.522;7.682;2024-01-10T07:30:07;-4.50;17.80
11650;DHT22;5881;48.522;7.682;2024-01-10T07:32:44;-4.50;17.90
11650;DHT22;5881;48.522;7.682;2024-01-10T07:35:12;-4.60;29.70
11650;DHT22;5881;48.522;7.682;2024-01-10T07:37:39;-4.50;19.20
11650;DHT22;5881;48.522;7.682;2024-01-10T07:40:06;-4.40;19.30
11650;DHT22;5881;48.522;7.682;2024-01-10T07:42:35;-4.30;18.60
11650;DHT22;5881;48.522;7.682;2024-01-10T07:45:01;-4.00;21.30
11650;DHT22;5881;48.522;7.682;2024-01-10T07:47:31;-4.00;17.40
11650;DHT22;5881;48.522;7.682;2024-01-10T07:50:00;-3.80;19.60
11650;DHT22;5881;48.522;7.682;2024-01-10T07:52:26;-3.40;20.50
11650;DHT22;5881;48.522;7.682;2024-01-10T07:54:51;-2.90;21.00
11650;DHT22;5881;48.522;7.682;2024-01-10T07:57:17;-2.70;18.00
11650;DHT22;5881;48.522;7.682;2024-01-10T07:59:44;-2.00;18.50
11650;DHT22;5881;48.522;7.682;2024-01-10T08:02:10;-1.60;17.80
11650;DHT22;5881;48.522;7.682;2024-01-10T08:04:37;-1.50;15.90
11650;DHT22;5881;48.522;7.682;2024-01-10T08:07:03;-1.50;13.40
11650;DHT22;5881;48.522;7.682;2024-01-10T08:09:29;-1.50;12.70
11650;DHT22;5881;48.522;7.682;2024-01-10T08:11:54;-2.10;1.00
11650;DHT22;5881;48.522;7.682;2024-01-10T08:14:20;-2.20;10.20
11650;DHT22;5881;48.522;7.682;2024-01-10T08:16:45;-2.50;9.20
11650;DHT22;5881;48.522;7.682;2024-01-10T08:19:11;-2.50;11.80
11650;DHT22;5881;48.522;7.682;2024-01-10T08:21:37;-2.10;14.40
11650;DHT22;5881;48.522;7.682;2024-01-10T08:24:03;-1.00;21.00
11650;DHT22;5881;48.522;7.682;2024-01-10T08:26:29;-0.20;19.60
11650;DHT22;5881;48.522;7.682;2024-01-10T08:28:55;0.70;22.10
11650;DHT22;5881;48.522;7.682;2024-01-10T08:31:20;0.70;15.40
11650;DHT22;5881;48.522;7.682;2024-01-10T08:33:46;0.30;14.20
11650;DHT22;5881;48.522;7.682;2024-01-10T08:36:12;0.00;10.10
11650;DHT22;5881;48.522;7.682;2024-01-10T08:38:38;0.00;10.10
11650;DHT22;5881;48.522;7.682;2024-01-10T08:41:04;0.10;11.50
11650;DHT22;5881;48.522;7.682;2024-01-10T08:43:29;0.20;13.70
11650;DHT22;5881;48.522;7.682;2024-01-10T08:45:56;1.00;14.80
11650;DHT22;5881;48.522;7.682;2024-01-10T08:48:23;1.30;13.70
11650;DHT22;5881;48.522;7.682;2024-01-10T08:50:50;1.00;10.50
11650;DHT22;5881;48.522;7.682;2024-01-10T08:53:16;1.10;10.60
11650;DHT22;5881;48.522;7.682;2024-01-10T08:55:42;0.80;9.60
11650;DHT22;5881;48.522;7.682;2024-01-10T08:58:07;0.60;8.60
11650;DHT22;5881;48.522;7.682;2024-01-10T09:00:33;0.80;9.70
11650;DHT22;5881;48.522;7.682;2024-01-10T09:03:00;1.90;13.30
11650;DHT22;5881;48.522;7.682;2024-01-10T09:05:25;1.60;11.70
11650;DHT22;5881;48.522;7.682;2024-01-10T09:07:51;2.30;15.50
11650;DHT22;5881;48.522;7.682;2024-01-10T09:10:19;2.10;12.80
11650;DHT22;5881;48.522;7.682;2024-01-10T09:12:47;2.40;14.80
11650;DHT22;5881;48.522;7.682;2024-01-10T09:15:13;2.30;12.50
11650;DHT22;5881;48.522;7.682;2024-01-10T09:17:41;2.30;12.00
11650;DHT22;5881;48.522;7.682;2024-01-10T09:20:07;3.00;14.70
11650;DHT22;5881;48.522;7.682;2024-01-10T09:22:33;3.10;15.70
11650;DHT22;5881;48.522;7.682;2024-01-10T09:24:59;3.50;14.00
11650;DHT22;5881;48.522;7.682;2024-01-10T09:27:38;3.10;13.20
11650;DHT22;5881;48.522;7.682;2024-01-10T09:30:06;3.10;12.50
11650;DHT22;5881;48.522;7.682;2024-01-10T09:32:34;3.10;12.20
11650;DHT22;5881;48.522;7.682;2024-01-10T09:35:00;3.00;11.30
11650;DHT22;5881;48.522;7.682;2024-01-10T09:37:26;3.20;12.60
11650;DHT22;5881;48.522;7.682;2024-01-10T09:39:52;3.30;13.60
11650;DHT22;5881;48.522;7.682;2024-01-10T09:42:18;3.30;10.90
11650;DHT22;5881;48.522;7.682;2024-01-10T09:44:46;3.30;12.20
11650;DHT22;5881;48.522;7.682;2024-01-10T09:47:13;3.40;23.10
11650;DHT22;5881;48.522;7.682;2024-01-10T09:49:40;3.30;12.50
11650;DHT22;5881;48.522;7.682;2024-01-10T09:52:09;3.50;13.30
11650;DHT22;5881;48.522;7.682;2024-01-10T09:54:38;4.40;16.20
11650;DHT22;5881;48.522;7.682;2024-01-10T09:57:03;4.00;13.60
11650;DHT22;5881;48.522;7.682;2024-01-10T09:59:29;4.00;12.10
11650;DHT22;5881;48.522;7.682;2024-01-10T10:01:56;4.10;14.10
11650;DHT22;5881;48.522;7.682;2024-01-10T10:04:24;4.40;14.00
11650;DHT22;5881;48.522;7.682;2024-01-10T10:07:01;4.20;12.70
11650;DHT22;5881;48.522;7.682;2024-01-10T10:09:28;4.30;13.70
11650;DHT22;5881;48.522;7.682;2024-01-10T10:11:55;4.50;13.90
11650;DHT22;5881;48.522;7.682;2024-01-10T10:14:21;3.90;10.90
11650;DHT22;5881;48.522;7.682;2024-01-10T10:16:47;4.20;12.90
11650;DHT22;5881;48.522;7.682;2024-01-10T10:19:22;4.50;13.10
11650;DHT22;5881;48.522;7.682;2024-01-10T10:21:48;3.60;7.90
11650;DHT22;5881;48.522;7.682;2024-01-10T10:24:14;3.50;7.80
11650;DHT22;5881;48.522;7.682;2024-01-10T10:26:40;3.60;18.30
11650;DHT22;5881;48.522;7.682;2024-01-10T10:29:06;3.00;4.80
11650;DHT22;5881;48.522;7.682;2024-01-10T10:31:32;2.60;2.30
11650;DHT22;5881;48.522;7.682;2024-01-10T10:34:00;2.40;2.50
11650;DHT22;5881;48.522;7.682;2024-01-10T10:36:26;2.60;3.80
11650;DHT22;5881;48.522;7.682;2024-01-10T10:38:52;3.10;6.30
11650;DHT22;5881;48.522;7.682;2024-01-10T10:41:18;3.90;10.50
11650;DHT22;5881;48.522;7.682;2024-01-10T10:43:44;4.20;11.70
11650;DHT22;5881;48.522;7.682;2024-01-10T10:46:10;4.50;12.70
11650;DHT22;5881;48.522;7.682;2024-01-10T10:48:40;3.40;5.00
11650;DHT22;5881;48.522;7.682;2024-01-10T10:51:11;3.10;3.90
11650;DHT22;5881;48.522;7.682;2024-01-10T10:53:45;3.40;5.50
11650;DHT22;5881;48.522;7.682;2024-01-10T10:56:12;3.50;5.90
11650;DHT22;5881;48.522;7.682;2024-01-10T10:58:41;3.80;7.30
11650;DHT22;5881;48.522;7.682;2024-01-10T11:01:08;4.30;9.20
11650;DHT22;5881;48.522;7.682;2024-01-10T11:03:36;4.80;11.40
11650;DHT22;5881;48.522;7.682;2024-01-10T11:06:03;5.10;13.00
11650;DHT22;5881;48.522;7.682;2024-01-10T11:08:34;5.60;12.60
11650;DHT22;5881;48.522;7.682;2024-01-10T11:11:01;5.60;14.10
11650;DHT22;5881;48.522;7.682;2024-01-10T11:19:40;6.20;11.50
11650;DHT22;5881;48.522;7.682;2024-01-10T11:24:40;6.10;10.30
11650;DHT22;5881;48.522;7.682;2024-01-10T11:27:13;5.90;9.40
11650;DHT22;5881;48.522;7.682;2024-01-10T11:29:40;4.90;4.90
11650;DHT22;5881;48.522;7.682;2024-01-10T11:32:07;4.50;1.10
11650;DHT22;5881;48.522;7.682;2024-01-10T11:34:35;3.60;1.00
11650;DHT22;5881;48.522;7.682;2024-01-10T11:37:11;4.20;2.90
11650;DHT22;5881;48.522;7.682;2024-01-10T11:39:39;5.20;8.60
11650;DHT22;5881;48.522;7.682;2024-01-10T11:42:07;5.30;9.50
11650;DHT22;5881;48.522;7.682;2024-01-10T11:44:34;4.80;4.90
11650;DHT22;5881;48.522;7.682;2024-01-10T11:47:13;4.90;6.10
11650;DHT22;5881;48.522;7.682;2024-01-10T11:49:40;4.20;1.90
11650;DHT22;5881;48.522;7.682;2024-01-10T11:52:05;4.20;1.30
11650;DHT22;5881;48.522;7.682;2024-01-10T11:54:38;4.00;1.00
11650;DHT22;5881;48.522;7.682;2024-01-10T11:57:29;3.80;1.00
11650;DHT22;5881;48.522;7.682;2024-01-10T11:59:57;3.50;1.00
11650;DHT22;5881;48.522;7.682;2024-01-10T12:02:26;3.50;1.00
11650;DHT22;5881;48.522;7.682;2024-01-10T12:04:53;3.30;1.00
11650;DHT22;5881;48.522;7.682;2024-01-10T12:07:19;3.60;1.90
11650;DHT22;5881;48.522;7.682;2024-01-10T12:09:46;4.00;2.80
11650;DHT22;5881;48.522;7.682;2024-01-10T12:12:15;3.60;1.00
11650;DHT22;5881;48.522;7.682;2024-01-10T12:14:41;3.10;1.00
11650;DHT22;5881;48.522;7.682;2024-01-10T12:17:09;2.70;1.00
11650;DHT22;5881;48.522;7.682;2024-01-10T12:19:35;2.60;1.00
11650;DHT22;5881;48.522;7.682;2024-01-10T12:22:04;2.50;1.00
11650;DHT22;5881;48.522;7.682;2024-01-10T12:24:33;2.60;1.00
11650;DHT22;5881;48.522;7.682;2024-01-10T12:26:59;2.30;1.00
11650;DHT22;5881;48.522;7.682;2024-01-10T12:29:25;1.80;1.00
11650;DHT22;5881;48.522;7.682;2024-01-10T12:31:51;1.80;1.00
11650;DHT22;5881;48.522;7.682;2024-01-10T12:34:17;2.00;1.00
11650;DHT22;5881;48.522;7.682;2024-01-10T12:36:43;2.20;1.00
11650;DHT22;5881;48.522;7.682;2024-01-10T12:39:10;2.40;1.00
11650;DHT22;5881;48.522;7.682;2024-01-10T12:41:36;2.70;1.00
11650;DHT22;5881;48.522;7.682;2024-01-10T12:44:03;2.60;1.00
11650;DHT22;5881;48.522;7.682;2024-01-10T12:46:30;2.70;1.00
11650;DHT22;5881;48.522;7.682;2024-01-10T12:49:06;2.50;1.00
11650;DHT22;5881;48.522;7.682;2024-01-10T12:51:33;2.50;1.00
11650;DHT22;5881;48.522;7.682;2024-01-10T12:53:59;2.50;1.00
11650;DHT22;5881;48.522;7.682;2024-01-10T12:56:26;2.50;1.00
11650;DHT22;5881;48.522;7.682;2024-01-10T12:58:52;2.30;1.00
11650;DHT22;5881;48.522;7.682;2024-01-10T13:01:18;2.10;1.00
11650;DHT22;5881;48.522;7.682;2024-01-10T13:03:43;2.00;1.00
11650;DHT22;5881;48.522;7.682;2024-01-10T13:06:09;2.00;1.00
11650;DHT22;5881;48.522;7.682;2024-01-10T13:08:36;1.90;1.00
11650;DHT22;5881;48.522;7.682;2024-01-10T13:11:02;2.10;1.00
11650;DHT22;5881;48.522;7.682;2024-01-10T13:13:37;1.80;1.00
11650;DHT22;5881;48.522;7.682;2024-01-10T13:16:04;1.80;1.00
11650;DHT22;5881;48.522;7.682;2024-01-10T13:18:29;1.90;1.00
11650;DHT22;5881;48.522;7.682;2024-01-10T13:20:55;1.90;1.00
11650;DHT22;5881;48.522;7.682;2024-01-10T13:23:21;1.90;1.00
11650;DHT22;5881;48.522;7.682;2024-01-10T13:25:52;1.90;1.00
11650;DHT22;5881;48.522;7.682;2024-01-10T13:28:20;1.90;1.00
11650;DHT22;5881;48.522;7.682;2024-01-10T13:30:46;2.00;1.00
11650;DHT22;5881;48.522;7.682;2024-01-10T13:33:12;1.80;1.00
11650;DHT22;5881;48.522;7.682;2024-01-10T13:35:38;1.70;1.00
11650;DHT22;5881;48.522;7.682;2024-01-10T13:38:04;1.80;1.00
11650;DHT22;5881;48.522;7.682;2024-01-10T13:40:31;1.60;1.00
11650;DHT22;5881;48.522;7.682;2024-01-10T13:42:59;1.60;1.00
11650;DHT22;5881;48.522;7.682;2024-01-10T13:45:28;1.50;1.00
11650;DHT22;5881;48.522;7.682;2024-01-10T13:47:53;1.50;1.00
11650;DHT22;5881;48.522;7.682;2024-01-10T13:50:19;1.50;1.00
11650;DHT22;5881;48.522;7.682;2024-01-10T13:52:44;1.30;1.00
11650;DHT22;5881;48.522;7.682;2024-01-10T13:55:10;1.30;1.00
11650;DHT22;5881;48.522;7.682;2024-01-10T13:57:36;1.20;1.00
11650;DHT22;5881;48.522;7.682;2024-01-10T14:00:02;1.30;1.00
11650;DHT22;5881;48.522;7.682;2024-01-10T14:02:29;1.20;1.00
11650;DHT22;5881;48.522;7.682;2024-01-10T14:04:54;1.40;1.00
11650;DHT22;5881;48.522;7.682;2024-01-10T14:07:20;1.20;1.00
11650;DHT22;5881;48.522;7.682;2024-01-10T14:09:46;1.20;1.00
11650;DHT22;5881;48.522;7.682;2024-01-10T14:12:12;1.20;1.00
11650;DHT22;5881;48.522;7.682;2024-01-10T14:14:38;1.10;1.00
11650;DHT22;5881;48.522;7.682;2024-01-10T14:17:04;1.20;1.00
11650;DHT22;5881;48.522;7.682;2024-01-10T14:19:29;1.20;1.00
11650;DHT22;5881;48.522;7.682;2024-01-10T14:21:55;1.20;1.00
11650;DHT22;5881;48.522;7.682;2024-01-10T14:24:21;1.20;1.00
11650;DHT22;5881;48.522;7.682;2024-01-10T14:26:46;1.10;1.00
11650;DHT22;5881;48.522;7.682;2024-01-10T14:29:12;1.10;1.00
11650;DHT22;5881;48.522;7.682;2024-01-10T14:31:38;1.30;1.00
11650;DHT22;5881;48.522;7.682;2024-01-10T14:34:05;1.00;1.00
11650;DHT22;5881;48.522;7.682;2024-01-10T14:36:31;1.20;1.00
11650;DHT22;5881;48.522;7.682;2024-01-10T14:38:57;1.00;1.00
11650;DHT22;5881;48.522;7.682;2024-01-10T14:41:22;0.90;1.00
11650;DHT22;5881;48.522;7.682;2024-01-10T14:43:48;0.90;1.00
11650;DHT22;5881;48.522;7.682;2024-01-10T14:46:14;0.80;1.00
11650;DHT22;5881;48.522;7.682;2024-01-10T14:48:39;0.80;1.00
11650;DHT22;5881;48.522;7.682;2024-01-10T14:51:05;0.80;1.00
11650;DHT22;5881;48.522;7.682;2024-01-10T14:53:31;0.80;1.00
11650;DHT22;5881;48.522;7.682;2024-01-10T14:55:56;0.80;1.00
11650;DHT22;5881;48.522;7.682;2024-01-10T14:58:22;0.80;1.00
11650;DHT22;5881;48.522;7.682;2024-01-10T15:00:48;0.70;1.00
11650;DHT22;5881;48.522;7.682;2024-01-10T15:03:14;0.70;1.00
11650;DHT22;5881;48.522;7.682;2024-01-10T15:05:41;0.70;1.00
11650;DHT22;5881;48.522;7.682;2024-01-10T15:08:07;0.60;1.00
11650;DHT22;5881;48.522;7.682;2024-01-10T15:10:37;0.60;1.00
11650;DHT22;5881;48.522;7.682;2024-01-10T15:13:12;0.60;1.00
11650;DHT22;5881;48.522;7.682;2024-01-10T15:15:38;0.50;1.00
11650;DHT22;5881;48.522;7.682;2024-01-10T15:18:05;0.50;1.00
11650;DHT22;5881;48.522;7.682;2024-01-10T15:20:30;0.40;1.00
11650;DHT22;5881;48.522;7.682;2024-01-10T15:22:56;0.40;1.00
11650;DHT22;5881;48.522;7.682;2024-01-10T15:25:23;0.30;1.00
11650;DHT22;5881;48.522;7.682;2024-01-10T15:27:50;0.40;1.00
11650;DHT22;5881;48.522;7.682;2024-01-10T15:30:15;0.30;1.00
11650;DHT22;5881;48.522;7.682;2024-01-10T15:32:41;0.30;1.00
11650;DHT22;5881;48.522;7.682;2024-01-10T15:35:07;0.20;1.00
11650;DHT22;5881;48.522;7.682;2024-01-10T15:37:33;0.20;1.00
11650;DHT22;5881;48.522;7.682;2024-01-10T15:39:58;0.10;1.00
11650;DHT22;5881;48.522;7.682;2024-01-10T15:42:24;0.10;1.00
11650;DHT22;5881;48.522;7.682;2024-01-10T15:44:49;0.00;1.00
11650;DHT22;5881;48.522;7.682;2024-01-10T15:47:15;0.00;1.00
11650;DHT22;5881;48.522;7.682;2024-01-10T15:49:41;0.00;1.00
11650;DHT22;5881;48.522;7.682;2024-01-10T15:52:07;-0.10;1.00
11650;DHT22;5881;48.522;7.682;2024-01-10T15:54:33;-0.20;1.00
11650;DHT22;5881;48.522;7.682;2024-01-10T15:57:04;-0.30;1.00
11650;DHT22;5881;48.522;7.682;2024-01-10T15:59:29;-0.30;3.30
11650;DHT22;5881;48.522;7.682;2024-01-10T16:01:55;-0.40;1.00
11650;DHT22;5881;48.522;7.682;2024-01-10T16:04:20;-0.40;1.00
11650;DHT22;5881;48.522;7.682;2024-01-10T16:06:46;-0.40;1.00